ZRH weather

Public forecast

Using degrees Celsius for public forecast. Weather courtesy of forecast.io.

Current aviation weather report (METAR) for Zürich Airport

Retrieved 2020/08/13 01:50 UTC (11 minutes ago):

LSZH 130150Z VRB03KT CAVOK 22/16 Q1015 NOSIG

Aviation forecast (TAF) for Zürich Airport

Retrieved 2020-08-13 00:33 UTC (1 hour ago):

TAF LSZH 122325Z 1300/1406 VRB03KT CAVOK TX28/1315Z TN18/1304Z TN18/1404Z TEMPO 1300/1302 9999 RA SCT070 PROB40 TEMPO 1302/1310 SHRA SCT060TCU PROB30 TEMPO 1304/1309 26015G25KT TSRA FEW045CB TEMPO 1310/1317 07008KT FEW060TCU PROB40 TEMPO 1319/1403 27015G25KT TSRA FEW045CB BKN050 PROB40 TEMPO 1403/1406 SHRA FEW050TCU